createdAt,value
2022-10-24T00:01:13.556Z,7.80
2022-10-24T00:03:40.381Z,7.57
2022-10-24T00:06:08.590Z,7.43
2022-10-24T00:08:35.703Z,7.33
2022-10-24T00:11:08.796Z,7.60
2022-10-24T00:13:35.548Z,7.63
2022-10-24T00:16:02.154Z,8.10
2022-10-24T00:18:28.771Z,8.33
2022-10-24T00:20:55.533Z,8.33
2022-10-24T00:23:22.168Z,7.87
2022-10-24T00:25:48.743Z,8.30
2022-10-24T00:28:15.978Z,9.40
2022-10-24T00:30:42.615Z,8.80
2022-10-24T00:33:09.342Z,8.57
2022-10-24T00:35:35.965Z,10.10
2022-10-24T00:38:02.641Z,9.50
2022-10-24T00:40:29.463Z,10.07
2022-10-24T00:42:56.042Z,10.17
2022-10-24T00:45:43.910Z,10.17
2022-10-24T00:48:15.939Z,10.53
2022-10-24T00:50:44.160Z,10.37
2022-10-24T00:53:12.252Z,9.43
2022-10-24T00:55:40.505Z,10.10
2022-10-24T00:58:08.581Z,10.27
2022-10-24T01:00:36.336Z,9.43
2022-10-24T01:03:04.314Z,10.47
2022-10-24T01:05:39.691Z,10.27
2022-10-24T01:08:14.000Z,10.90
2022-10-24T01:10:47.373Z,9.40
2022-10-24T01:13:25.411Z,9.43
2022-10-24T01:16:00.682Z,9.67
2022-10-24T01:18:32.585Z,9.63
2022-10-24T01:21:25.714Z,10.40
2022-10-24T01:24:28.178Z,9.70
2022-10-24T01:27:08.520Z,9.50
2022-10-24T01:29:49.519Z,10.40
2022-10-24T01:32:30.637Z,9.67
2022-10-24T01:35:02.548Z,10.07
2022-10-24T01:37:35.091Z,10.20
2022-10-24T01:40:08.942Z,9.60
2022-10-24T01:42:38.021Z,10.00
2022-10-24T01:45:13.296Z,9.73
2022-10-24T01:47:44.715Z,9.80
2022-10-24T01:50:15.902Z,9.77
2022-10-24T01:52:45.647Z,9.07
2022-10-24T01:55:12.738Z,9.37
2022-10-24T01:57:39.709Z,9.20
2022-10-24T02:00:15.123Z,9.03
2022-10-24T02:02:45.225Z,8.67
2022-10-24T02:05:16.676Z,8.37
2022-10-24T02:07:46.451Z,8.60
2022-10-24T02:10:17.048Z,8.63
2022-10-24T02:12:51.871Z,8.47
2022-10-24T02:15:23.633Z,8.83
2022-10-24T02:17:50.713Z,8.47
2022-10-24T02:20:17.759Z,9.23
2022-10-24T02:22:51.281Z,8.77
2022-10-24T02:25:23.306Z,8.90
2022-10-24T02:27:53.075Z,8.83
2022-10-24T02:30:23.019Z,9.40
2022-10-24T02:32:53.567Z,8.67
2022-10-24T02:35:23.919Z,8.13
2022-10-24T02:37:54.585Z,8.70
2022-10-24T02:40:22.575Z,10.20
2022-10-24T02:42:54.723Z,9.90
2022-10-24T02:45:22.918Z,9.43
2022-10-24T02:47:55.150Z,9.83
2022-10-24T02:50:22.340Z,10.20
2022-10-24T02:52:49.200Z,10.33
2022-10-24T02:55:15.787Z,9.00
2022-10-24T02:57:42.464Z,10.30
2022-10-24T03:00:10.374Z,8.67
2022-10-24T03:02:37.715Z,9.70
2022-10-24T03:05:04.872Z,10.67
2022-10-24T03:07:31.478Z,9.77
2022-10-24T03:09:58.051Z,10.40
2022-10-24T03:12:25.668Z,9.87
2022-10-24T03:14:52.349Z,9.30
2022-10-24T03:17:18.938Z,9.37
2022-10-24T03:19:46.252Z,9.50
2022-10-24T03:22:12.789Z,9.20
2022-10-24T03:24:44.209Z,9.67
2022-10-24T03:27:21.213Z,9.67
2022-10-24T03:29:47.753Z,9.03
2022-10-24T03:32:14.451Z,9.57
2022-10-24T03:34:41.207Z,8.83
2022-10-24T03:37:09.490Z,9.23
2022-10-24T03:39:36.124Z,10.40
2022-10-24T03:42:02.749Z,10.60
2022-10-24T03:44:29.588Z,9.77
2022-10-24T03:46:56.241Z,8.63
2022-10-24T03:49:22.869Z,9.27
2022-10-24T03:51:49.517Z,8.67
2022-10-24T03:54:17.123Z,8.80
2022-10-24T03:56:44.955Z,9.23
2022-10-24T03:59:11.621Z,10.53
2022-10-24T04:01:40.908Z,8.20
2022-10-24T04:04:07.765Z,8.77
2022-10-24T04:06:36.471Z,9.27
2022-10-24T04:09:04.038Z,9.43
2022-10-24T04:11:31.566Z,8.47
2022-10-24T04:16:33.437Z,7.80
2022-10-24T04:19:00.023Z,7.63
2022-10-24T04:21:26.688Z,7.10
2022-10-24T04:23:53.541Z,8.23
2022-10-24T04:26:20.261Z,8.00
2022-10-24T04:28:48.069Z,6.97
2022-10-24T04:31:17.087Z,7.47
2022-10-24T04:33:46.436Z,7.63
2022-10-24T04:36:13.036Z,7.47
2022-10-24T04:38:40.008Z,8.23
2022-10-24T04:41:09.824Z,9.17
2022-10-24T04:43:38.645Z,8.13
2022-10-24T04:46:06.273Z,7.07
2022-10-24T04:48:32.952Z,8.17
2022-10-24T04:50:59.735Z,6.67
2022-10-24T04:53:26.399Z,8.03
2022-10-24T04:55:53.010Z,6.33
2022-10-24T04:58:20.161Z,6.80
2022-10-24T05:00:49.012Z,7.03
2022-10-24T05:03:17.185Z,6.80
2022-10-24T05:05:43.886Z,5.97
2022-10-24T05:08:10.753Z,6.50
2022-10-24T05:10:37.646Z,6.60
2022-10-24T05:13:04.563Z,7.00
2022-10-24T05:15:31.137Z,6.87
2022-10-24T05:17:58.401Z,7.57
